Time;durP1;ratioP1;P1;durP2;ratioP2;P2;SDS_P1;SDS_P2;PMS_P1;PMS_P2;Temp;Humidity;BMP_temperature;BMP_pressure;BME280_temperature;BME280_humidity;BME280_pressure;Samples;Min_cycle;Max_cycle;Signal;HPM_P1;HPM_P2
2022/05/21 00:00:27;;;;;;;4.35;1.70;;;21.00;96.70;;;;;;5050199;28;20439;-75
2022/05/21 00:02:56;;;;;;;6.10;2.35;;;21.10;96.70;;;;;;5052758;28;20505;-76
2022/05/21 00:05:26;;;;;;;5.38;2.05;;;21.20;96.70;;;;;;5058564;28;20044;-76
2022/05/21 00:07:56;;;;;;;6.63;2.28;;;21.10;96.70;;;;;;5056127;28;20059;-76
2022/05/21 00:10:26;;;;;;;5.18;1.65;;;21.00;96.70;;;;;;5053403;28;20072;-76
2022/05/21 00:12:55;;;;;;;3.25;1.73;;;21.10;96.70;;;;;;5050732;28;20156;-76
2022/05/21 00:15:25;;;;;;;3.85;1.73;;;21.30;96.70;;;;;;5056830;28;20498;-75
2022/05/21 00:17:54;;;;;;;5.25;1.67;;;21.20;96.70;;;;;;5051357;28;21594;-76
2022/05/21 00:23:12;;;;;;;4.07;1.73;;;21.20;96.70;;;;;;5054573;28;20387;-76
2022/05/21 00:25:41;;;;;;;3.40;1.50;;;21.30;96.70;;;;;;5052429;28;20361;-75
2022/05/21 00:28:09;;;;;;;4.22;1.70;;;21.20;96.70;;;;;;5050142;28;20476;-76
2022/05/21 00:30:37;;;;;;;7.28;2.08;;;21.10;96.70;;;;;;5054299;28;20527;-76
2022/05/21 00:33:06;;;;;;;5.03;2.20;;;21.20;96.70;;;;;;5054138;28;20512;-76
2022/05/21 00:35:34;;;;;;;3.60;1.58;;;21.00;96.70;;;;;;5050206;28;20746;-75
2022/05/21 00:38:02;;;;;;;3.42;1.65;;;20.90;96.70;;;;;;5050512;28;20056;-76
2022/05/21 00:40:32;;;;;;;4.25;2.10;;;20.80;96.70;;;;;;5048545;28;20045;-75
2022/05/21 00:43:00;;;;;;;2.95;1.77;;;20.80;96.70;;;;;;5053135;28;20048;-76
2022/05/21 00:45:30;;;;;;;6.35;2.33;;;20.70;96.70;;;;;;5037419;28;20053;-76
2022/05/21 00:47:58;;;;;;;5.40;1.90;;;20.70;96.70;;;;;;5056440;28;20049;-76
2022/05/21 00:50:29;;;;;;;6.53;2.10;;;20.90;96.70;;;;;;5050271;28;20509;-76
2022/05/21 00:52:58;;;;;;;4.63;1.92;;;20.90;96.70;;;;;;5049886;28;20526;-76
2022/05/21 00:55:30;;;;;;;2.78;1.58;;;20.80;96.70;;;;;;5034754;28;20049;-76
2022/05/21 01:00:51;;;;;;;4.57;2.13;;;20.90;96.70;;;;;;5048759;28;20654;-76
2022/05/21 01:03:20;;;;;;;5.50;2.00;;;20.80;96.70;;;;;;5056927;28;20072;-76
2022/05/21 01:05:48;;;;;;;4.43;2.03;;;20.60;96.70;;;;;;5052534;28;20049;-76
2022/05/21 01:08:16;;;;;;;6.85;2.30;;;20.60;96.70;;;;;;5055768;28;20045;-76
2022/05/21 01:10:50;;;;;;;2.78;1.73;;;20.60;96.70;;;;;;5053173;28;20040;-75
2022/05/21 01:13:24;;;;;;;6.45;1.88;;;20.50;96.70;;;;;;5034540;28;20049;-76
2022/05/21 01:15:53;;;;;;;2.97;1.90;;;20.50;96.70;;;;;;5051155;28;20052;-75
2022/05/21 01:18:22;;;;;;;3.90;1.83;;;20.50;96.70;;;;;;5055003;28;20033;-76
2022/05/21 01:20:56;;;;;;;5.53;2.00;;;20.50;96.70;;;;;;5053032;28;20797;-75
2022/05/21 01:23:26;;;;;;;5.35;1.80;;;20.10;96.70;;;;;;5046416;28;20048;-76
2022/05/21 01:25:57;;;;;;;2.92;1.70;;;20.10;96.70;;;;;;5053450;28;20049;-76
2022/05/21 01:28:30;;;;;;;4.78;1.75;;;20.20;96.70;;;;;;5035358;28;20055;-76
2022/05/21 01:31:02;;;;;;;2.97;1.80;;;20.40;96.70;;;;;;5055068;28;20053;-76
2022/05/21 01:33:36;;;;;;;4.50;1.90;;;20.40;96.70;;;;;;5043100;28;20677;-76
2022/05/21 01:36:06;;;;;;;4.80;1.83;;;20.30;96.70;;;;;;5057585;28;20040;-76
2022/05/21 01:38:37;;;;;;;4.95;1.90;;;20.30;96.70;;;;;;5050728;28;20802;-76
2022/05/21 01:41:08;;;;;;;5.80;1.75;;;20.40;96.70;;;;;;5056577;28;20174;-76
2022/05/21 01:46:25;;;;;;;3.35;1.73;;;20.50;96.70;;;;;;5051037;28;20573;-75
2022/05/21 01:48:54;;;;;;;4.05;1.60;;;20.40;96.70;;;;;;5053599;28;20387;-75
2022/05/21 01:51:24;;;;;;;2.72;1.50;;;20.40;96.70;;;;;;5042912;28;20055;-75
2022/05/21 01:53:56;;;;;;;3.42;1.63;;;20.30;96.70;;;;;;5052536;28;20048;-76
2022/05/21 01:56:24;;;;;;;2.85;1.70;;;20.40;96.70;;;;;;5049368;28;20383;-76
2022/05/21 01:58:53;;;;;;;3.88;1.55;;;20.40;96.70;;;;;;5041383;28;20044;-75
2022/05/21 02:01:22;;;;;;;5.55;1.50;;;20.30;96.70;;;;;;5037395;28;20076;-75
2022/05/21 02:03:51;;;;;;;2.25;1.55;;;20.20;96.70;;;;;;5058301;28;20394;-76
2022/05/21 02:06:19;;;;;;;2.65;1.45;;;20.00;96.70;;;;;;5054748;28;20064;-75
2022/05/21 02:08:47;;;;;;;2.80;1.40;;;20.20;96.70;;;;;;5055684;28;20139;-75
2022/05/21 02:11:17;;;;;;;2.83;1.48;;;20.20;96.70;;;;;;5055521;28;20059;-75
2022/05/21 02:13:45;;;;;;;2.88;1.20;;;20.10;96.70;;;;;;5052898;28;20110;-76
2022/05/21 02:16:13;;;;;;;5.20;1.60;;;19.80;96.70;;;;;;5060316;28;20044;-76
2022/05/21 02:18:42;;;;;;;3.03;1.60;;;19.70;96.70;;;;;;5055753;28;20095;-76
2022/05/21 02:21:10;;;;;;;2.78;1.30;;;19.70;96.70;;;;;;5053288;28;20102;-75
2022/05/21 02:23:38;;;;;;;6.85;2.03;;;19.80;96.70;;;;;;5057222;28;20136;-75
2022/05/21 02:26:07;;;;;;;6.40;1.40;;;19.90;96.70;;;;;;5056004;28;20124;-76
2022/05/21 02:28:36;;;;;;;4.90;1.52;;;20.00;96.70;;;;;;5053371;28;20041;-76
2022/05/21 02:31:04;;;;;;;4.00;1.83;;;19.80;96.70;;;;;;5054842;28;20410;-76
2022/05/21 02:33:33;;;;;;;5.53;1.65;;;19.80;96.70;;;;;;5052388;28;20041;-76
2022/05/21 02:36:01;;;;;;;3.22;1.38;;;19.90;96.70;;;;;;5051651;28;20040;-76
2022/05/21 02:41:17;;;;;;;4.35;1.80;;;19.70;96.70;;;;;;5051886;28;20048;-75
2022/05/21 02:43:47;;;;;;;2.85;1.70;;;19.70;96.70;;;;;;5058996;28;20044;-76
2022/05/21 02:46:16;;;;;;;3.97;1.67;;;19.60;96.70;;;;;;5054672;28;20040;-76
2022/05/21 02:48:45;;;;;;;5.05;1.40;;;19.60;96.70;;;;;;5055136;28;20083;-76
2022/05/21 02:51:13;;;;;;;2.92;1.60;;;19.80;96.70;;;;;;5039286;28;20044;-76
2022/05/21 02:53:42;;;;;;;2.13;1.52;;;19.80;96.70;;;;;;5056030;28;20426;-76
2022/05/21 02:56:14;;;;;;;2.63;1.40;;;19.80;96.70;;;;;;5051441;28;20068;-76
2022/05/21 02:58:42;;;;;;;4.10;1.80;;;19.80;96.70;;;;;;5048450;28;20049;-76
2022/05/21 03:01:12;;;;;;;6.05;1.73;;;19.60;96.70;;;;;;5057727;28;20095;-76
2022/05/21 03:03:41;;;;;;;4.05;1.70;;;19.60;96.70;;;;;;5037536;28;20061;-76
2022/05/21 03:06:09;;;;;;;4.05;1.90;;;19.60;96.70;;;;;;5056735;28;20102;-76
2022/05/21 03:11:24;;;;;;;3.25;1.60;;;19.60;96.70;;;;;;5054104;28;20682;-76
2022/05/21 03:13:52;;;;;;;2.75;1.38;;;19.50;96.70;;;;;;5054903;28;20051;-76
2022/05/21 03:16:21;;;;;;;3.25;1.60;;;19.40;96.70;;;;;;5038424;28;20060;-76
2022/05/21 03:18:49;;;;;;;3.40;1.38;;;19.30;96.70;;;;;;5052255;28;20101;-76
2022/05/21 03:21:18;;;;;;;5.10;1.65;;;19.30;96.70;;;;;;5053995;28;20048;-76
2022/05/21 03:23:47;;;;;;;3.70;1.65;;;19.50;96.70;;;;;;5056237;28;20041;-75
2022/05/21 03:26:15;;;;;;;3.65;1.50;;;19.50;96.70;;;;;;5055144;28;20135;-75
2022/05/21 03:28:43;;;;;;;3.08;1.50;;;19.30;96.70;;;;;;5053865;28;20131;-76
2022/05/21 03:31:11;;;;;;;2.50;1.48;;;19.20;96.70;;;;;;5050734;28;20521;-76
2022/05/21 03:33:41;;;;;;;6.00;1.50;;;19.10;96.70;;;;;;5056013;28;20465;-75
2022/05/21 03:36:09;;;;;;;3.03;1.40;;;19.20;96.70;;;;;;5036771;28;20076;-75
2022/05/21 03:38:37;;;;;;;2.45;1.30;;;19.10;96.70;;;;;;5053297;28;20045;-76
2022/05/21 03:41:05;;;;;;;2.47;1.60;;;19.00;96.70;;;;;;5052620;28;20382;-75
2022/05/21 03:43:33;;;;;;;5.07;1.70;;;19.30;96.70;;;;;;5040671;28;20437;-76
2022/05/21 03:46:03;;;;;;;2.47;1.60;;;19.40;96.70;;;;;;5055822;28;20083;-76
2022/05/21 03:48:31;;;;;;;2.33;1.88;;;19.30;96.70;;;;;;5051048;28;20132;-76
2022/05/21 03:51:01;;;;;;;2.28;1.40;;;19.30;96.70;;;;;;5053880;28;20126;-76
2022/05/21 03:53:29;;;;;;;4.22;1.75;;;19.20;96.70;;;;;;5048602;28;20437;-75
2022/05/21 03:55:58;;;;;;;3.55;1.83;;;19.20;96.70;;;;;;5051097;28;20084;-75
2022/05/21 03:58:27;;;;;;;4.40;2.72;;;19.10;96.70;;;;;;5049630;28;20502;-75
2022/05/21 04:00:55;;;;;;;5.80;2.15;;;19.10;96.70;;;;;;5051039;28;20492;-76
2022/05/21 04:03:24;;;;;;;3.70;1.88;;;19.00;96.70;;;;;;5054461;28;20127;-76
2022/05/21 04:05:55;;;;;;;4.38;1.73;;;19.10;96.70;;;;;;5056370;28;20505;-76
2022/05/21 04:08:24;;;;;;;3.45;2.13;;;19.20;96.70;;;;;;5048882;28;20498;-75
2022/05/21 04:10:53;;;;;;;5.20;2.03;;;19.10;96.70;;;;;;5057373;28;20050;-76
2022/05/21 04:13:22;;;;;;;5.10;2.42;;;19.00;96.70;;;;;;5032265;28;20052;-75
2022/05/21 04:15:50;;;;;;;2.97;1.67;;;19.10;96.70;;;;;;5035794;28;20045;-76
2022/05/21 04:18:19;;;;;;;2.85;1.73;;;19.00;96.70;;;;;;5055685;28;20051;-76
2022/05/21 04:20:48;;;;;;;5.82;1.77;;;18.90;96.70;;;;;;5047738;28;20037;-76
2022/05/21 04:23:16;;;;;;;2.72;1.40;;;19.00;96.70;;;;;;5050812;28;20075;-77
2022/05/21 04:25:47;;;;;;;1.60;1.30;;;18.90;96.70;;;;;;5054415;28;20047;-77
2022/05/21 04:28:18;;;;;;;3.25;1.83;;;18.80;96.70;;;;;;5054442;28;20055;-77
2022/05/21 04:30:46;;;;;;;3.42;1.33;;;19.00;96.70;;;;;;5048509;28;20048;-76
2022/05/21 04:33:14;;;;;;;2.78;1.50;;;19.10;96.70;;;;;;5048815;28;20041;-76
2022/05/21 04:38:33;;;;;;;4.97;1.70;;;19.30;96.70;;;;;;5054514;28;20048;-76
2022/05/21 04:41:03;;;;;;;3.05;1.50;;;19.40;96.70;;;;;;5051295;28;20064;-76
2022/05/21 04:43:31;;;;;;;4.07;1.55;;;19.30;96.70;;;;;;5059446;28;20052;-77
2022/05/21 04:46:03;;;;;;;2.28;1.83;;;19.30;96.70;;;;;;5048970;28;20118;-77
2022/05/21 04:48:31;;;;;;;6.35;2.28;;;19.30;96.70;;;;;;5056971;28;20087;-76
2022/05/21 04:51:02;;;;;;;5.28;2.30;;;19.30;96.70;;;;;;5031864;28;20048;-76
2022/05/21 04:53:31;;;;;;;5.68;2.42;;;19.20;96.70;;;;;;5060218;28;20220;-76
2022/05/21 04:56:00;;;;;;;6.35;1.80;;;19.20;96.70;;;;;;5036200;28;20048;-76
2022/05/21 04:58:50;;;;;;;3.00;1.60;;;19.30;96.70;;;;;;5056201;28;20131;-76
2022/05/21 05:01:18;;;;;;;4.80;1.70;;;19.30;96.70;;;;;;5057411;28;20087;-76
2022/05/21 05:03:47;;;;;;;4.00;1.50;;;19.20;96.70;;;;;;5052545;28;20048;-76
2022/05/21 05:06:15;;;;;;;4.97;1.50;;;19.40;96.70;;;;;;5055646;28;20036;-76
2022/05/21 05:08:44;;;;;;;5.18;1.95;;;19.40;96.70;;;;;;5056040;28;20494;-76
2022/05/21 05:11:12;;;;;;;3.95;1.60;;;19.30;96.70;;;;;;5050664;28;20044;-76
2022/05/21 05:13:41;;;;;;;2.35;1.40;;;19.30;96.70;;;;;;5054185;28;20091;-76
2022/05/21 05:16:11;;;;;;;3.70;1.70;;;19.30;96.70;;;;;;5054938;28;20036;-76
2022/05/21 05:18:39;;;;;;;5.80;1.88;;;19.20;96.70;;;;;;5035463;28;20055;-76
2022/05/21 05:21:07;;;;;;;4.22;1.83;;;19.20;96.70;;;;;;5058911;28;20125;-76
2022/05/21 05:23:35;;;;;;;2.83;2.22;;;19.40;96.70;;;;;;5059180;28;20127;-76
2022/05/21 05:26:04;;;;;;;4.63;1.83;;;19.30;96.70;;;;;;5056894;28;20044;-76
2022/05/21 05:28:32;;;;;;;4.97;1.92;;;19.40;96.70;;;;;;5058314;28;20049;-76
2022/05/21 05:31:00;;;;;;;4.32;1.70;;;19.50;96.70;;;;;;5050443;28;20049;-78
2022/05/21 05:33:33;;;;;;;2.90;1.98;;;19.50;96.70;;;;;;5053849;28;20068;-76
2022/05/21 05:36:02;;;;;;;4.82;1.90;;;19.50;96.70;;;;;;5038951;28;20084;-76
2022/05/21 05:38:30;;;;;;;2.33;1.88;;;19.60;96.70;;;;;;5053456;28;20068;-76
2022/05/21 05:40:59;;;;;;;3.63;2.08;;;19.70;96.70;;;;;;5054875;28;20048;-81
2022/05/21 05:43:28;;;;;;;5.47;2.22;;;19.50;96.70;;;;;;5044896;28;20127;-77
2022/05/21 05:45:59;;;;;;;6.63;2.70;;;19.30;96.70;;;;;;5054885;28;20045;-78
2022/05/21 05:48:30;;;;;;;3.67;2.20;;;19.40;96.70;;;;;;5053758;28;20057;-76
2022/05/21 05:51:02;;;;;;;6.65;2.70;;;19.50;96.70;;;;;;5059335;28;20053;-76
2022/05/21 05:53:30;;;;;;;5.50;2.00;;;19.60;96.70;;;;;;5053264;28;20041;-76
2022/05/21 05:56:01;;;;;;;4.05;2.22;;;19.60;96.70;;;;;;5051367;28;20109;-77
2022/05/21 06:01:16;;;;;;;6.70;2.10;;;19.60;96.70;;;;;;5060248;28;20131;-76
2022/05/21 06:03:45;;;;;;;3.10;1.73;;;19.70;96.70;;;;;;5051492;28;20136;-76
2022/05/21 06:06:21;;;;;;;5.05;1.90;;;19.90;96.70;;;;;;5057738;28;20364;-76
2022/05/21 06:08:50;;;;;;;4.40;1.30;;;19.90;96.70;;;;;;5056588;28;20135;-76
2022/05/21 06:11:22;;;;;;;7.05;1.85;;;19.90;96.70;;;;;;5054967;28;20517;-76
2022/05/21 06:13:50;;;;;;;5.50;2.15;;;19.90;96.70;;;;;;5052854;28;20735;-76
2022/05/21 06:16:19;;;;;;;2.75;1.75;;;19.80;96.70;;;;;;5035275;28;20072;-76
2022/05/21 06:18:50;;;;;;;3.70;2.05;;;19.80;96.70;;;;;;5055907;28;20048;-76
2022/05/21 06:21:18;;;;;;;4.60;1.50;;;20.00;96.70;;;;;;5053796;28;20305;-75
2022/05/21 06:23:46;;;;;;;6.32;2.03;;;20.10;96.70;;;;;;5053808;28;20326;-76
2022/05/21 06:26:15;;;;;;;4.78;1.80;;;20.10;96.70;;;;;;5058275;28;20036;-76
2022/05/21 06:28:43;;;;;;;6.25;1.80;;;20.20;96.70;;;;;;5056017;28;20045;-76
2022/05/21 06:31:11;;;;;;;4.25;1.70;;;20.20;96.70;;;;;;5050523;28;20049;-76
2022/05/21 06:33:40;;;;;;;3.50;1.50;;;20.30;96.70;;;;;;5058843;28;20036;-76
2022/05/21 06:36:12;;;;;;;4.30;1.90;;;20.30;96.70;;;;;;5054391;28;20049;-77
2022/05/21 06:38:41;;;;;;;6.15;2.22;;;20.40;96.70;;;;;;5054214;28;20082;-76
2022/05/21 06:41:09;;;;;;;4.93;1.80;;;20.40;96.70;;;;;;5038747;28;20090;-76
2022/05/21 06:43:38;;;;;;;3.22;1.50;;;20.30;96.70;;;;;;5072506;28;25255;-77
2022/05/21 06:46:06;;;;;;;2.95;1.75;;;20.40;96.70;;;;;;5052720;28;20048;-77
2022/05/21 06:48:34;;;;;;;4.10;1.88;;;20.40;96.70;;;;;;5052352;28;20048;-77
2022/05/21 06:51:05;;;;;;;3.50;1.98;;;20.40;96.70;;;;;;5037392;28;20053;-75
2022/05/21 06:53:36;;;;;;;3.70;2.33;;;20.60;96.70;;;;;;5055337;28;20064;-77
2022/05/21 06:56:09;;;;;;;4.65;2.35;;;20.60;96.70;;;;;;5056446;28;20631;-77
2022/05/21 06:58:37;;;;;;;6.53;3.00;;;20.70;96.70;;;;;;5056491;28;20044;-77
2022/05/21 07:01:06;;;;;;;4.95;2.70;;;20.70;96.70;;;;;;5051844;28;20041;-77
2022/05/21 07:03:35;;;;;;;6.70;3.10;;;20.70;96.70;;;;;;5050462;28;20699;-77
2022/05/21 07:08:51;;;;;;;6.55;3.30;;;20.90;96.70;;;;;;5058734;28;21332;-76
2022/05/21 07:11:19;;;;;;;5.05;3.28;;;20.90;96.70;;;;;;5049980;28;20041;-77
2022/05/21 07:13:48;;;;;;;4.82;2.78;;;20.90;96.70;;;;;;5056811;28;20051;-77
2022/05/21 07:16:16;;;;;;;3.53;2.42;;;20.90;96.70;;;;;;5050740;28;20029;-77
2022/05/21 07:18:44;;;;;;;7.07;2.95;;;21.00;96.70;;;;;;5034444;28;20059;-77
2022/05/21 07:21:18;;;;;;;7.25;3.05;;;21.00;96.70;;;;;;5055614;28;20444;-77
2022/05/21 07:23:48;;;;;;;6.38;2.70;;;21.10;96.70;;;;;;5052676;28;20047;-77
2022/05/21 07:26:32;;;;;;;6.80;3.10;;;21.20;96.70;;;;;;5057060;28;20142;-76
2022/05/21 07:29:00;;;;;;;6.45;2.75;;;21.20;96.70;;;;;;5037363;28;20045;-76
2022/05/21 07:31:37;;;;;;;6.63;2.53;;;21.30;96.70;;;;;;5054068;28;20059;-76
2022/05/21 07:34:06;;;;;;;5.82;2.55;;;21.30;96.70;;;;;;5049502;28;20049;-76
2022/05/21 07:36:34;;;;;;;4.10;1.90;;;21.40;96.70;;;;;;5030887;28;20044;-77
2022/05/21 07:39:02;;;;;;;5.72;2.05;;;21.40;96.70;;;;;;5056139;28;20045;-75
2022/05/21 07:41:31;;;;;;;2.55;1.77;;;21.50;96.70;;;;;;5053414;28;20044;-76
2022/05/21 07:44:00;;;;;;;4.03;2.00;;;21.50;96.70;;;;;;5051718;28;20136;-77
2022/05/21 07:46:29;;;;;;;3.78;2.00;;;21.60;96.70;;;;;;5051760;28;20123;-77
2022/05/21 07:48:57;;;;;;;4.55;1.85;;;21.70;96.70;;;;;;5031226;28;20135;-77
2022/05/21 07:51:25;;;;;;;4.65;2.40;;;21.70;96.70;;;;;;5052614;28;20052;-76
2022/05/21 07:53:53;;;;;;;2.97;2.00;;;21.70;96.70;;;;;;5049622;28;20041;-77
2022/05/21 07:56:23;;;;;;;4.60;3.05;;;21.70;96.70;;;;;;5048821;28;20045;-76
2022/05/21 07:58:53;;;;;;;7.43;2.65;;;21.80;96.70;;;;;;5049784;28;20492;-76
2022/05/21 08:01:22;;;;;;;7.30;2.45;;;21.80;96.70;;;;;;5054301;28;20060;-77
2022/05/21 08:03:50;;;;;;;5.57;2.20;;;21.90;96.70;;;;;;5049136;28;20044;-77
2022/05/21 08:06:18;;;;;;;4.70;2.00;;;21.90;96.70;;;;;;5052097;28;20691;-77
2022/05/21 08:08:48;;;;;;;8.82;2.30;;;22.00;96.70;;;;;;5052281;28;20137;-77
2022/05/21 08:11:17;;;;;;;3.92;2.55;;;22.10;96.70;;;;;;5050630;28;20052;-76
2022/05/21 08:13:45;;;;;;;4.32;2.28;;;22.10;96.70;;;;;;5049947;28;20066;-76
2022/05/21 08:16:15;;;;;;;4.95;2.03;;;22.20;96.70;;;;;;5033366;28;20070;-77
2022/05/21 08:18:43;;;;;;;5.97;2.13;;;22.30;96.70;;;;;;5049890;28;20414;-78
2022/05/21 08:21:11;;;;;;;4.15;1.55;;;22.30;96.70;;;;;;5049611;28;20548;-77
2022/05/21 08:29:12;;;;;;;3.08;1.70;;;22.60;96.70;;;;;;5052261;28;20041;-76
2022/05/21 08:31:42;;;;;;;3.45;1.88;;;22.60;96.70;;;;;;5051652;28;20102;-76
2022/05/21 08:34:10;;;;;;;5.65;1.77;;;22.70;96.70;;;;;;5047953;28;20041;-77
2022/05/21 08:36:38;;;;;;;5.53;1.98;;;22.80;96.70;;;;;;5048785;28;20040;-77
2022/05/21 08:39:09;;;;;;;4.65;1.73;;;22.90;96.70;;;;;;5047904;28;20041;-76
2022/05/21 08:41:45;;;;;;;7.47;1.90;;;22.80;96.70;;;;;;5053362;28;21583;-76
2022/05/21 08:44:27;;;;;;;4.77;2.27;;;22.90;96.70;;;;;;5050694;28;20068;-76
2022/05/21 08:47:04;;;;;;;4.70;1.85;;;23.00;96.70;;;;;;5053888;28;20044;-76
2022/05/21 08:49:39;;;;;;;3.75;1.70;;;23.10;96.70;;;;;;5051334;28;20057;-77
2022/05/21 08:52:14;;;;;;;3.30;1.52;;;23.20;96.70;;;;;;5051142;28;20036;-77
2022/05/21 08:54:44;;;;;;;4.63;1.90;;;23.20;96.70;;;;;;5053077;28;20072;-76
2022/05/21 08:57:15;;;;;;;5.20;1.95;;;23.20;96.70;;;;;;5040716;28;20053;-77
2022/05/21 08:59:47;;;;;;;8.25;2.25;;;23.30;96.70;;;;;;5047485;28;20045;-77
2022/05/21 09:02:20;;;;;;;2.17;1.63;;;23.40;96.70;;;;;;5049883;28;20041;-77
2022/05/21 09:04:49;;;;;;;4.38;2.20;;;23.40;96.70;;;;;;5058006;28;20044;-77
2022/05/21 09:07:20;;;;;;;4.95;2.75;;;23.50;96.70;;;;;;5053732;28;20414;-77
2022/05/21 09:10:06;;;;;;;3.38;1.92;;;23.50;96.70;;;;;;5052095;28;20028;-77
2022/05/21 09:12:42;;;;;;;2.67;1.45;;;23.50;96.70;;;;;;5053207;28;20044;-77
2022/05/21 09:16:54;;;;;;;4.13;1.95;;;23.60;96.70;;;;;;5051595;28;20486;-77
2022/05/21 09:18:09;;;;;;;4.55;1.88;;;23.70;96.70;;;;;;5049681;28;20140;-76
2022/05/21 09:20:45;;;;;;;4.38;1.80;;;23.90;96.70;;;;;;5048094;28;20436;-75
2022/05/21 09:23:13;;;;;;;4.32;1.50;;;23.90;96.70;;;;;;5049939;28;20053;-76
2022/05/21 09:25:44;;;;;;;3.55;1.50;;;24.10;96.70;;;;;;5050400;28;20575;-75
2022/05/21 09:28:20;;;;;;;5.03;1.70;;;24.10;96.70;;;;;;5055307;28;20040;-75
2022/05/21 09:30:57;;;;;;;2.90;1.67;;;24.00;96.70;;;;;;5053046;28;20422;-76
2022/05/21 09:33:32;;;;;;;4.07;1.55;;;24.10;96.70;;;;;;5050824;28;20599;-76
2022/05/21 09:36:01;;;;;;;2.72;1.35;;;24.20;96.70;;;;;;5048870;28;20045;-76
2022/05/21 09:38:32;;;;;;;5.00;1.65;;;24.20;96.70;;;;;;5050958;28;20048;-75
2022/05/21 09:41:12;;;;;;;4.78;2.22;;;24.30;96.70;;;;;;5049409;28;20126;-76
2022/05/21 09:47:09;;;;;;;3.53;1.70;;;24.40;96.70;;;;;;5038236;28;20119;-76
2022/05/21 09:49:39;;;;;;;5.93;2.13;;;24.50;96.70;;;;;;5050831;28;20505;-76
2022/05/21 09:52:20;;;;;;;6.00;2.00;;;24.60;96.70;;;;;;5055751;28;20137;-76
2022/05/21 09:54:48;;;;;;;6.85;1.95;;;24.60;96.70;;;;;;5053055;28;20043;-76
2022/05/21 09:57:24;;;;;;;10.55;2.40;;;24.70;96.70;;;;;;5056284;28;20156;-76
2022/05/21 10:00:07;;;;;;;5.95;2.03;;;24.80;96.70;;;;;;5059022;28;20794;-75
2022/05/21 10:02:43;;;;;;;7.63;2.00;;;24.90;96.70;;;;;;5056034;28;20053;-76
2022/05/21 10:05:16;;;;;;;6.47;2.00;;;24.90;96.70;;;;;;5057053;28;20041;-75
2022/05/21 10:10:58;;;;;;;3.63;2.05;;;24.90;96.70;;;;;;5062272;28;20053;-76
2022/05/21 10:13:31;;;;;;;2.97;1.73;;;25.10;96.70;;;;;;5049153;28;20782;-76
2022/05/21 10:16:10;;;;;;;6.85;1.95;;;25.20;96.70;;;;;;5056221;28;20049;-76
2022/05/21 10:18:44;;;;;;;3.22;1.77;;;25.30;96.70;;;;;;5055043;28;20040;-76
2022/05/21 10:21:22;;;;;;;5.95;2.55;;;25.40;96.70;;;;;;5048232;28;20052;-76
2022/05/21 10:23:55;;;;;;;5.28;1.98;;;25.40;96.70;;;;;;5041445;28;20094;-75
2022/05/21 10:26:38;;;;;;;4.90;1.80;;;25.40;96.70;;;;;;5036551;28;20434;-76
2022/05/21 10:29:38;;;;;;;6.75;2.03;;;25.60;96.70;;;;;;5057108;28;20571;-76
2022/05/21 10:32:20;;;;;;;4.38;1.95;;;25.70;96.70;;;;;;5050801;28;20048;-76
2022/05/21 10:35:01;;;;;;;5.07;1.80;;;25.80;96.70;;;;;;5056482;28;20046;-76
2022/05/21 10:37:52;;;;;;;5.28;2.20;;;26.00;96.70;;;;;;5051571;28;20049;-76
2022/05/21 10:40:34;;;;;;;4.10;1.98;;;25.90;96.70;;;;;;5058212;28;20387;-76
2022/05/21 10:43:17;;;;;;;4.45;2.13;;;25.90;96.70;;;;;;5037784;28;20045;-77
2022/05/21 10:45:57;;;;;;;6.53;2.50;;;25.90;96.70;;;;;;5054886;28;20120;-76
2022/05/21 10:49:04;;;;;;;5.50;2.50;;;26.00;96.70;;;;;;5053709;28;20084;-76
2022/05/21 10:51:36;;;;;;;3.50;2.20;;;26.10;96.70;;;;;;5007279;28;20837;-77
2022/05/21 10:54:40;;;;;;;5.35;2.33;;;26.00;96.70;;;;;;5049592;28;20532;-76
2022/05/21 10:57:26;;;;;;;4.72;2.20;;;26.20;96.70;;;;;;5050628;28;20037;-76
2022/05/21 11:00:07;;;;;;;4.93;2.35;;;26.10;96.70;;;;;;5046057;28;20056;-76
2022/05/21 11:03:15;;;;;;;3.50;2.55;;;26.20;96.70;;;;;;5053867;28;20533;-77
2022/05/21 11:06:17;;;;;;;5.35;2.33;;;26.20;96.70;;;;;;5053527;28;20067;-76
2022/05/21 11:08:58;;;;;;;3.65;2.53;;;26.40;96.70;;;;;;5039168;28;20103;-77
2022/05/21 11:11:37;;;;;;;7.45;2.75;;;26.50;96.70;;;;;;5053866;28;20044;-76
2022/05/21 11:14:12;;;;;;;4.15;2.53;;;26.70;96.70;;;;;;5037950;28;20049;-76
2022/05/21 11:16:45;;;;;;;4.15;2.10;;;26.60;96.70;;;;;;5053545;28;20730;-76
2022/05/21 11:19:17;;;;;;;3.75;2.28;;;26.50;96.70;;;;;;5050221;28;20462;-77
2022/05/21 11:21:51;;;;;;;4.68;2.38;;;26.70;96.70;;;;;;5055318;28;20478;-76
2022/05/21 11:24:24;;;;;;;6.10;2.40;;;26.60;96.70;;;;;;5051421;28;20674;-76
2022/05/21 11:27:12;;;;;;;5.35;2.20;;;26.60;96.70;;;;;;5055174;28;20045;-75
2022/05/21 11:29:45;;;;;;;5.97;2.17;;;26.90;96.70;;;;;;5051016;28;20052;-76
2022/05/21 11:37:58;;;;;;;5.13;2.05;;;27.00;96.70;;;;;;5056773;28;20052;-76
2022/05/21 11:46:52;;;;;;;4.43;2.08;;;26.80;96.70;;;;;;5047106;28;20430;-76
2022/05/21 11:49:34;;;;;;;5.35;2.10;;;27.00;96.70;;;;;;5036305;28;20052;-76
2022/05/21 11:52:35;;;;;;;6.10;2.45;;;26.90;96.70;;;;;;5052386;28;20477;-76
2022/05/21 11:55:15;;;;;;;4.65;1.95;;;26.90;96.70;;;;;;5056420;28;20130;-75
2022/05/21 11:57:50;;;;;;;5.65;2.08;;;27.00;96.70;;;;;;5052510;28;20422;-76
2022/05/21 12:00:42;;;;;;;5.95;2.20;;;26.80;96.70;;;;;;5056947;28;20123;-76
2022/05/21 12:03:14;;;;;;;5.80;2.38;;;26.70;96.70;;;;;;5039717;28;20060;-75
2022/05/21 12:06:11;;;;;;;4.93;2.05;;;26.70;96.70;;;;;;5056146;28;20036;-77
2022/05/21 12:08:48;;;;;;;5.00;2.28;;;27.00;96.70;;;;;;5029726;28;20051;-75
2022/05/21 12:11:40;;;;;;;5.65;2.05;;;27.00;96.70;;;;;;5055216;28;20047;-80
2022/05/21 12:14:25;;;;;;;4.82;1.85;;;26.90;96.70;;;;;;5053999;28;20051;-78
2022/05/21 12:16:58;;;;;;;6.60;2.05;;;26.90;96.70;;;;;;5037814;28;20052;-77
2022/05/21 12:20:04;;;;;;;4.97;2.00;;;27.00;96.70;;;;;;5049764;28;20045;-75
2022/05/21 12:22:52;;;;;;;4.18;2.20;;;27.10;96.70;;;;;;5050185;28;20514;-76
2022/05/21 12:25:58;;;;;;;5.20;2.00;;;27.10;96.70;;;;;;5050545;28;20525;-79
2022/05/21 12:28:47;;;;;;;6.75;2.15;;;27.00;96.70;;;;;;5046022;28;20044;-79
2022/05/21 12:31:24;;;;;;;4.88;2.13;;;27.10;96.70;;;;;;5039483;28;20063;-80
2022/05/21 12:34:29;;;;;;;6.05;2.30;;;26.90;96.70;;;;;;5047440;28;20044;-80
2022/05/21 12:37:09;;;;;;;5.20;2.15;;;27.00;96.70;;;;;;5024734;28;20060;-79
2022/05/21 12:39:50;;;;;;;5.75;2.05;;;27.00;96.70;;;;;;5049946;28;20384;-81
2022/05/21 12:42:23;;;;;;;4.70;2.45;;;27.20;96.70;;;;;;5033351;28;20510;-80
2022/05/21 12:44:52;;;;;;;5.72;2.35;;;27.20;96.70;;;;;;5049904;28;20052;-80
2022/05/21 12:47:27;;;;;;;7.88;2.22;;;27.10;96.70;;;;;;5054484;28;20152;-80
2022/05/21 12:49:58;;;;;;;9.75;2.65;;;27.20;96.70;;;;;;5051464;28;20041;-80
2022/05/21 12:52:32;;;;;;;7.03;2.50;;;27.20;96.70;;;;;;5050943;28;20056;-78
2022/05/21 12:55:18;;;;;;;6.20;2.42;;;27.20;96.70;;;;;;5052201;28;20052;-79
2022/05/21 12:57:47;;;;;;;5.85;2.40;;;27.30;96.70;;;;;;5048733;28;20087;-78
2022/05/21 13:00:18;;;;;;;3.88;2.47;;;27.10;96.70;;;;;;5049729;28;20047;-80
2022/05/21 13:02:48;;;;;;;6.85;2.28;;;27.30;96.70;;;;;;5034166;28;20145;-79
2022/05/21 13:05:25;;;;;;;5.53;2.38;;;27.30;96.70;;;;;;5035600;28;20045;-79
2022/05/21 13:07:56;;;;;;;5.43;2.17;;;27.30;96.70;;;;;;5055440;28;20150;-79
2022/05/21 13:10:26;;;;;;;5.25;2.08;;;27.50;96.70;;;;;;5050410;28;20049;-78
2022/05/21 13:12:59;;;;;;;7.43;2.00;;;27.60;96.70;;;;;;5059961;28;20707;-80
2022/05/21 13:15:31;;;;;;;6.15;2.30;;;27.80;96.70;;;;;;5048368;28;20044;-74
2022/05/21 13:18:21;;;;;;;4.13;2.00;;;28.10;96.70;;;;;;5052913;28;20107;-76
2022/05/21 13:21:01;;;;;;;5.38;2.00;;;27.90;96.70;;;;;;5054615;28;20044;-77
2022/05/21 13:23:54;;;;;;;9.55;2.22;;;28.00;96.70;;;;;;5053266;28;20044;-76
2022/05/21 13:26:25;;;;;;;4.93;2.17;;;28.10;96.70;;;;;;5058039;28;20048;-76
2022/05/21 13:29:12;;;;;;;5.70;2.53;;;28.10;96.70;;;;;;5056403;28;20585;-74
2022/05/21 13:31:40;;;;;;;3.45;1.73;;;28.30;96.70;;;;;;5053748;28;20113;-75
2022/05/21 13:34:15;;;;;;;6.30;2.40;;;28.30;96.70;;;;;;5053939;28;20043;-75
2022/05/21 13:36:51;;;;;;;7.82;2.30;;;28.30;96.70;;;;;;5049340;28;20048;-75
2022/05/21 13:39:26;;;;;;;9.75;2.55;;;28.60;96.70;;;;;;5051703;28;20040;-75
2022/05/21 13:42:01;;;;;;;3.92;2.35;;;28.30;96.70;;;;;;5053141;28;20147;-76
2022/05/21 13:44:34;;;;;;;5.35;2.15;;;28.20;96.70;;;;;;5052927;28;20132;-75
2022/05/21 13:47:07;;;;;;;5.80;2.00;;;28.20;96.70;;;;;;5059888;28;20060;-76
2022/05/21 13:49:38;;;;;;;5.45;2.25;;;28.30;96.70;;;;;;5050359;28;20180;-76
2022/05/21 13:52:11;;;;;;;5.78;2.05;;;28.40;96.70;;;;;;5032002;28;20106;-76
2022/05/21 13:54:41;;;;;;;6.07;2.30;;;28.40;96.70;;;;;;5051784;28;20051;-76
2022/05/21 13:57:14;;;;;;;4.90;2.00;;;28.40;96.70;;;;;;5059035;28;20043;-76
2022/05/21 13:59:56;;;;;;;6.25;2.30;;;28.30;96.70;;;;;;5056386;28;20127;-76
2022/05/21 14:02:34;;;;;;;5.40;2.45;;;28.40;96.70;;;;;;5053509;28;20124;-76